Eastern, Illinois
Current Conditions -  °F | °C
As of 5:55 AM on Thursday 25 Dec 2014 (Local Time) from KMWA Reporting Station
Overcast Overcast  
Wind Chill: 31°   Ceiling: 2700
Heat Index: 37°   Visibility: 10mi
Dew Point: 34°   Wind: 8mph
Humidity: 87%   Direction: 200°SSW
Pressure: 30.04"   Gusts: NA
Location:  38.0175°N, 88.9351°W
Report Text: KMWA 251155Z AUTO 20007KT 10SM OVC027 03/01 A3004 RMK AO2
Loading
Personal Weather Stations






























Interactive Weather Map New forecast layout! Learn more

10-Day Weather Forecast

Advertisements
Track Severe Weather on mobile